Time;durP1;ratioP1;P1;durP2;ratioP2;P2;SDS_P1;SDS_P2;PMS_P1;PMS_P2;Temp;Humidity;BMP_temperature;BMP_pressure;BME280_temperature;BME280_humidity;BME280_pressure;Samples;Min_cycle;Max_cycle;Signal;HPM_P1;HPM_P2
2021/12/04 00:00:17;;;;;;;1.40;0.88;;;;;;;;;;5057087;28;20033;-86
2021/12/04 00:02:42;;;;;;;1.35;0.77;;;;;;;;;;5057903;28;20072;-86
2021/12/04 00:05:08;;;;;;;2.88;0.80;;;;;;;;;;5057596;28;20048;-86
2021/12/04 00:07:35;;;;;;;2.38;0.75;;;;;;;;;;5057839;28;20473;-86
2021/12/04 00:10:04;;;;;;;1.30;0.82;;;;;;;;;;5056624;28;20057;-86
2021/12/04 00:12:33;;;;;;;1.10;0.80;;;;;;;;;;5057591;28;20040;-86
2021/12/04 00:14:59;;;;;;;1.80;0.98;;;;;;;;;;5057164;28;20064;-86
2021/12/04 00:17:24;;;;;;;1.63;1.08;;;;;;;;;;5039866;28;20060;-86
2021/12/04 00:19:50;;;;;;;0.80;0.45;;;;;;;;;;5058339;28;20048;-86
2021/12/04 00:22:16;;;;;;;1.30;0.68;;;;;;;;;;5057811;28;20029;-86
2021/12/04 00:24:42;;;;;;;0.93;0.70;;;;;;;;;;5058191;28;20037;-85
2021/12/04 00:27:07;;;;;;;1.17;0.70;;;;;;;;;;5056781;28;20040;-88
2021/12/04 00:29:32;;;;;;;1.25;0.70;;;;;;;;;;5058149;28;20112;-88
2021/12/04 00:32:08;;;;;;;1.67;0.80;;;;;;;;;;5057438;28;20072;-87
2021/12/04 00:34:37;;;;;;;2.00;0.95;;;;;;;;;;5057043;28;20092;-87
2021/12/04 00:37:36;;;;;;;1.20;0.77;;;;;;;;;;5056405;28;20427;-86
2021/12/04 00:49:07;;;;;;;2.03;0.77;;;;;;;;;;5060176;28;20033;-86
2021/12/04 00:51:11;;;;;;;2.00;1.00;;;;;;;;;;5060794;28;20029;-85
2021/12/04 00:53:36;;;;;;;1.60;1.02;;;;;;;;;;5060380;28;20028;-86
2021/12/04 00:56:01;;;;;;;2.17;1.08;;;;;;;;;;5058680;28;20463;-86
2021/12/04 00:58:28;;;;;;;1.80;0.90;;;;;;;;;;5062224;28;20558;-87
2021/12/04 01:00:53;;;;;;;1.63;0.90;;;;;;;;;;5059756;28;20055;-86
2021/12/04 01:03:19;;;;;;;1.05;0.70;;;;;;;;;;5059397;28;20484;-86
2021/12/04 01:05:44;;;;;;;1.83;0.80;;;;;;;;;;5059579;28;20044;-86
2021/12/04 01:08:09;;;;;;;2.53;1.10;;;;;;;;;;5059855;28;20033;-87
2021/12/04 01:10:35;;;;;;;1.05;0.70;;;;;;;;;;5063794;28;20040;-86
2021/12/04 01:13:04;;;;;;;2.63;0.90;;;;;;;;;;5069107;28;20044;-86
2021/12/04 01:15:29;;;;;;;1.13;0.88;;;;;;;;;;5066615;28;20057;-86
2021/12/04 01:17:54;;;;;;;2.45;0.70;;;;;;;;;;5048775;28;20040;-86
2021/12/04 01:20:20;;;;;;;1.15;0.77;;;;;;;;;;5061625;28;20051;-86
2021/12/04 01:22:45;;;;;;;1.35;0.80;;;;;;;;;;5067378;28;20037;-86
2021/12/04 01:25:10;;;;;;;1.85;0.75;;;;;;;;;;5067211;28;20124;-85
2021/12/04 01:27:37;;;;;;;2.38;0.77;;;;;;;;;;5069693;28;20131;-86
2021/12/04 01:30:02;;;;;;;1.60;0.80;;;;;;;;;;5062257;28;20029;-86
2021/12/04 01:32:28;;;;;;;2.33;1.00;;;;;;;;;;5042023;28;20044;-86
2021/12/04 01:34:55;;;;;;;1.15;0.70;;;;;;;;;;5059561;28;20013;-85
2021/12/04 01:37:20;;;;;;;0.82;0.50;;;;;;;;;;5059223;28;20037;-86
2021/12/04 01:39:45;;;;;;;1.67;0.95;;;;;;;;;;5059037;28;20448;-86
2021/12/04 01:42:11;;;;;;;1.85;0.80;;;;;;;;;;5059664;28;20447;-86
2021/12/04 01:44:40;;;;;;;1.08;0.65;;;;;;;;;;5058006;28;20032;-86
2021/12/04 01:47:05;;;;;;;1.02;0.60;;;;;;;;;;5059312;28;20116;-86
2021/12/04 01:49:30;;;;;;;0.82;0.70;;;;;;;;;;5059943;28;20406;-86
2021/12/04 01:51:56;;;;;;;1.77;0.88;;;;;;;;;;5059957;28;20516;-86
2021/12/04 01:54:21;;;;;;;2.22;0.60;;;;;;;;;;5058046;28;20029;-86
2021/12/04 01:56:46;;;;;;;1.70;0.88;;;;;;;;;;5058139;28;20040;-86
2021/12/04 01:59:12;;;;;;;1.00;0.60;;;;;;;;;;5059303;28;20374;-86
2021/12/04 02:01:37;;;;;;;0.80;0.57;;;;;;;;;;5058969;28;20439;-86
2021/12/04 02:04:04;;;;;;;1.08;0.70;;;;;;;;;;5059624;28;20117;-86
2021/12/04 02:06:30;;;;;;;1.40;0.70;;;;;;;;;;5057984;28;20101;-86
2021/12/04 02:08:55;;;;;;;1.58;0.70;;;;;;;;;;5058079;28;20061;-85
2021/12/04 02:11:20;;;;;;;2.25;0.80;;;;;;;;;;5058850;28;20170;-86
2021/12/04 02:13:46;;;;;;;1.63;0.60;;;;;;;;;;5063417;28;20045;-86
2021/12/04 02:16:11;;;;;;;0.70;0.50;;;;;;;;;;5057415;28;20115;-85
2021/12/04 02:18:36;;;;;;;0.75;0.60;;;;;;;;;;5058673;28;20094;-85
2021/12/04 02:21:02;;;;;;;1.38;0.50;;;;;;;;;;5057628;28;20013;-86
2021/12/04 02:23:28;;;;;;;1.02;0.60;;;;;;;;;;5058225;28;20033;-86
2021/12/04 02:25:53;;;;;;;1.15;0.70;;;;;;;;;;5057357;28;20063;-87
2021/12/04 02:28:19;;;;;;;0.80;0.70;;;;;;;;;;5057259;28;20052;-87
2021/12/04 02:30:45;;;;;;;0.63;0.47;;;;;;;;;;5058812;28;20056;-88
2021/12/04 02:33:16;;;;;;;2.05;0.70;;;;;;;;;;5058674;28;20041;-88
2021/12/04 02:35:41;;;;;;;2.72;0.82;;;;;;;;;;5058638;28;20033;-87
2021/12/04 02:38:06;;;;;;;1.17;0.65;;;;;;;;;;5058525;28;20025;-87
2021/12/04 02:40:32;;;;;;;0.75;0.55;;;;;;;;;;5058253;28;20033;-86
2021/12/04 02:42:57;;;;;;;1.55;0.77;;;;;;;;;;5056447;28;20477;-86
2021/12/04 02:45:22;;;;;;;1.10;0.80;;;;;;;;;;5056603;28;20076;-86
2021/12/04 02:47:48;;;;;;;1.55;0.65;;;;;;;;;;5056836;28;20446;-86
2021/12/04 02:50:13;;;;;;;0.98;0.65;;;;;;;;;;5058566;28;20118;-86
2021/12/04 02:52:38;;;;;;;1.50;0.90;;;;;;;;;;5057056;28;20032;-86
2021/12/04 02:55:03;;;;;;;1.77;0.90;;;;;;;;;;5040145;28;20021;-85
2021/12/04 02:57:29;;;;;;;1.13;0.75;;;;;;;;;;5057164;28;20492;-86
2021/12/04 02:59:55;;;;;;;1.13;0.70;;;;;;;;;;5056957;28;20033;-86
2021/12/04 03:02:21;;;;;;;1.15;0.73;;;;;;;;;;5057264;28;20021;-86
2021/12/04 03:04:47;;;;;;;2.15;0.90;;;;;;;;;;5040252;28;20054;-87
2021/12/04 03:07:12;;;;;;;3.17;1.00;;;;;;;;;;5056708;28;20084;-85
2021/12/04 03:09:37;;;;;;;1.27;0.90;;;;;;;;;;5058441;28;20033;-85
2021/12/04 03:12:03;;;;;;;1.17;0.80;;;;;;;;;;5057474;28;20057;-86
2021/12/04 03:14:28;;;;;;;1.08;0.80;;;;;;;;;;5057998;28;20127;-86
2021/12/04 03:16:53;;;;;;;1.48;0.90;;;;;;;;;;5057686;28;20048;-86
2021/12/04 03:19:19;;;;;;;3.00;0.90;;;;;;;;;;5056695;28;20036;-86
2021/12/04 03:21:45;;;;;;;1.60;0.75;;;;;;;;;;5058260;28;20008;-86
2021/12/04 03:24:13;;;;;;;1.58;0.90;;;;;;;;;;5058358;28;20473;-86
2021/12/04 03:26:38;;;;;;;1.83;0.80;;;;;;;;;;5055530;28;20036;-86
2021/12/04 03:29:07;;;;;;;1.52;0.90;;;;;;;;;;5057722;28;20033;-85
2021/12/04 03:42:13;;;;;;;2.60;0.90;;;;;;;;;;5055946;28;20400;-85
2021/12/04 03:44:40;;;;;;;1.23;0.82;;;;;;;;;;5057502;28;20115;-86
2021/12/04 03:47:05;;;;;;;1.58;0.90;;;;;;;;;;5057283;28;20378;-86
2021/12/04 03:49:30;;;;;;;2.80;0.90;;;;;;;;;;5057234;28;20075;-85
2021/12/04 03:51:56;;;;;;;1.45;0.90;;;;;;;;;;5057461;28;20092;-85
2021/12/04 03:54:21;;;;;;;1.80;0.85;;;;;;;;;;5038939;28;20025;-86
2021/12/04 03:56:47;;;;;;;1.83;0.90;;;;;;;;;;5056715;28;20033;-86
2021/12/04 03:59:12;;;;;;;1.35;1.00;;;;;;;;;;5057137;28;20040;-88
2021/12/04 04:01:38;;;;;;;2.15;0.80;;;;;;;;;;5057784;28;20032;-86
2021/12/04 04:04:03;;;;;;;4.57;0.95;;;;;;;;;;5056339;28;20579;-87
2021/12/04 04:06:29;;;;;;;1.38;0.90;;;;;;;;;;5039225;28;20392;-87
2021/12/04 04:08:54;;;;;;;1.50;0.90;;;;;;;;;;5055478;28;20114;-87
2021/12/04 04:11:19;;;;;;;1.42;0.70;;;;;;;;;;5057718;28;20037;-87
2021/12/04 04:13:45;;;;;;;1.02;0.70;;;;;;;;;;5057044;28;20096;-87
2021/12/04 04:16:10;;;;;;;1.10;0.85;;;;;;;;;;5057576;28;20075;-87
2021/12/04 04:18:36;;;;;;;1.88;0.80;;;;;;;;;;5060049;28;20037;-87
2021/12/04 04:21:01;;;;;;;1.08;0.77;;;;;;;;;;5061580;28;20088;-86
2021/12/04 04:23:27;;;;;;;1.42;0.80;;;;;;;;;;5060135;28;20362;-87
2021/12/04 04:25:53;;;;;;;1.70;0.90;;;;;;;;;;5060185;28;20500;-87
2021/12/04 04:28:19;;;;;;;1.85;0.77;;;;;;;;;;5061458;28;20045;-86
2021/12/04 04:30:44;;;;;;;1.73;0.90;;;;;;;;;;5061474;28;20555;-87
2021/12/04 04:33:13;;;;;;;1.52;0.77;;;;;;;;;;5060065;28;20090;-86
2021/12/04 04:35:39;;;;;;;1.55;0.80;;;;;;;;;;5059348;28;20033;-86
2021/12/04 04:38:14;;;;;;;3.45;0.90;;;;;;;;;;5060779;28;20055;-86
2021/12/04 05:13:04;;;;;;;0.90;0.70;;;;;;;;;;5059564;28;20068;-86
2021/12/04 05:21:03;;;;;;;0.85;0.70;;;;;;;;;;5061674;28;20029;-86
2021/12/04 05:23:29;;;;;;;;;;;;;;;;;;5059854;28;20082;-83
2021/12/04 05:25:54;;;;;;;0.60;0.50;;;;;;;;;;5060024;28;19916;-86
2021/12/04 05:28:19;;;;;;;1.58;0.60;;;;;;;;;;5059245;28;20036;-86
2021/12/04 05:30:45;;;;;;;2.53;0.93;;;;;;;;;;5058113;28;20041;-86
2021/12/04 05:33:10;;;;;;;2.35;0.60;;;;;;;;;;5058161;28;20046;-86
2021/12/04 05:35:35;;;;;;;2.15;0.70;;;;;;;;;;5059393;28;20134;-86
2021/12/04 05:38:01;;;;;;;0.80;0.65;;;;;;;;;;5058792;28;20017;-86
2021/12/04 05:40:26;;;;;;;3.38;0.50;;;;;;;;;;5057791;28;20400;-86
2021/12/04 05:43:00;;;;;;;0.70;0.60;;;;;;;;;;5058267;28;20064;-86
2021/12/04 05:45:26;;;;;;;3.90;0.70;;;;;;;;;;5057929;28;20036;-86
2021/12/04 05:48:06;;;;;;;0.88;0.63;;;;;;;;;;5058994;28;20025;-86
2021/12/04 05:55:26;;;;;;;1.63;0.80;;;;;;;;;;5057422;28;20580;-86
2021/12/04 05:57:51;;;;;;;1.83;0.75;;;;;;;;;;5058023;28;20481;-86
2021/12/04 06:00:18;;;;;;;1.25;0.70;;;;;;;;;;5058372;28;20044;-85
2021/12/04 06:02:43;;;;;;;1.88;0.70;;;;;;;;;;5059198;28;20033;-86
2021/12/04 06:05:08;;;;;;;1.88;0.80;;;;;;;;;;5057511;28;20043;-86
2021/12/04 06:07:34;;;;;;;1.55;0.80;;;;;;;;;;5058417;28;20044;-86
2021/12/04 06:09:59;;;;;;;1.95;1.20;;;;;;;;;;5058500;28;20105;-85
2021/12/04 06:12:24;;;;;;;1.92;0.80;;;;;;;;;;5057961;28;20032;-88
2021/12/04 06:14:50;;;;;;;2.78;0.80;;;;;;;;;;5057949;28;20021;-86
2021/12/04 06:17:18;;;;;;;1.92;0.70;;;;;;;;;;5057954;28;20017;-86
2021/12/04 06:22:42;;;;;;;3.85;1.13;;;;;;;;;;5059207;28;20063;-87
2021/12/04 06:25:08;;;;;;;1.35;0.70;;;;;;;;;;5058641;28;20043;-86
2021/12/04 06:27:33;;;;;;;1.42;0.77;;;;;;;;;;5059129;28;20032;-86
2021/12/04 06:29:58;;;;;;;5.55;0.90;;;;;;;;;;5058302;28;20036;-87
2021/12/04 06:32:24;;;;;;;7.22;0.98;;;;;;;;;;5058758;28;20052;-86
2021/12/04 06:34:49;;;;;;;1.15;0.90;;;;;;;;;;5058508;28;20024;-87
2021/12/04 06:37:15;;;;;;;1.80;0.77;;;;;;;;;;5057346;28;20087;-86
2021/12/04 06:39:40;;;;;;;3.30;0.75;;;;;;;;;;5058255;28;20029;-86
2021/12/04 06:42:06;;;;;;;1.05;0.80;;;;;;;;;;5057687;28;20067;-86
2021/12/04 06:44:32;;;;;;;5.63;1.02;;;;;;;;;;5040418;28;20044;-86
2021/12/04 06:46:57;;;;;;;2.38;0.90;;;;;;;;;;5058610;28;20112;-85
2021/12/04 06:49:27;;;;;;;2.03;0.75;;;;;;;;;;5057967;28;20070;-86
2021/12/04 06:51:56;;;;;;;1.80;0.90;;;;;;;;;;5058015;28;20033;-87
2021/12/04 06:54:26;;;;;;;2.50;1.10;;;;;;;;;;5040796;28;20399;-86
2021/12/04 06:56:51;;;;;;;2.50;1.15;;;;;;;;;;5058928;28;20017;-85
2021/12/04 06:59:22;;;;;;;1.70;0.90;;;;;;;;;;5057934;28;20096;-86
2021/12/04 07:01:48;;;;;;;1.58;0.80;;;;;;;;;;5059084;28;20029;-86
2021/12/04 07:04:16;;;;;;;0.80;0.70;;;;;;;;;;5057818;28;20362;-86
2021/12/04 07:06:41;;;;;;;1.60;1.00;;;;;;;;;;5058054;28;20103;-85
2021/12/04 07:09:08;;;;;;;0.98;0.55;;;;;;;;;;5058553;28;20067;-86
2021/12/04 07:11:33;;;;;;;1.02;0.50;;;;;;;;;;5057867;28;20039;-86
2021/12/04 07:13:58;;;;;;;1.98;1.27;;;;;;;;;;5058242;28;20037;-86
2021/12/04 07:16:24;;;;;;;1.67;0.80;;;;;;;;;;5058174;28;20032;-84
2021/12/04 07:18:50;;;;;;;1.00;0.60;;;;;;;;;;5058131;28;20056;-85
2021/12/04 07:21:15;;;;;;;0.80;0.70;;;;;;;;;;5059424;28;20037;-86
2021/12/04 07:23:41;;;;;;;2.92;1.73;;;;;;;;;;5058535;28;20038;-86
2021/12/04 07:26:06;;;;;;;0.68;0.50;;;;;;;;;;5056077;28;20041;-87
2021/12/04 07:28:32;;;;;;;0.85;0.60;;;;;;;;;;5057948;28;20021;-87
2021/12/04 07:30:57;;;;;;;1.60;0.73;;;;;;;;;;5057819;28;20032;-87
2021/12/04 07:33:23;;;;;;;1.20;0.82;;;;;;;;;;5057080;28;20476;-87
2021/12/04 07:35:48;;;;;;;2.05;0.70;;;;;;;;;;5056039;28;20439;-87
2021/12/04 07:38:14;;;;;;;0.95;0.73;;;;;;;;;;5056802;28;20029;-87
2021/12/04 07:40:39;;;;;;;1.23;0.80;;;;;;;;;;5056610;28;20492;-87
2021/12/04 07:43:04;;;;;;;2.42;0.90;;;;;;;;;;5056607;28;20033;-87
2021/12/04 07:45:30;;;;;;;2.08;1.10;;;;;;;;;;5056555;28;20040;-87
2021/12/04 07:47:55;;;;;;;1.10;0.70;;;;;;;;;;5057090;28;20037;-87
2021/12/04 07:50:20;;;;;;;1.30;0.70;;;;;;;;;;5057980;28;20033;-86
2021/12/04 07:52:46;;;;;;;1.52;0.77;;;;;;;;;;5062442;28;20039;-86
2021/12/04 07:55:11;;;;;;;1.50;0.70;;;;;;;;;;5059879;28;20031;-86
2021/12/04 07:57:36;;;;;;;1.25;0.70;;;;;;;;;;5061416;28;20045;-86
2021/12/04 08:00:02;;;;;;;1.60;0.95;;;;;;;;;;5062139;28;20040;-84
2021/12/04 08:02:30;;;;;;;1.20;0.70;;;;;;;;;;5061339;28;20112;-85
2021/12/04 08:04:55;;;;;;;1.60;0.73;;;;;;;;;;5054826;28;20072;-85
2021/12/04 08:07:20;;;;;;;2.13;1.10;;;;;;;;;;5061980;28;21526;-85
2021/12/04 08:09:46;;;;;;;1.23;0.80;;;;;;;;;;5062091;28;20473;-86
2021/12/04 08:12:11;;;;;;;3.53;1.00;;;;;;;;;;5061455;28;20036;-86
2021/12/04 08:14:36;;;;;;;1.95;1.00;;;;;;;;;;5060588;28;20443;-86
2021/12/04 08:17:02;;;;;;;1.13;0.70;;;;;;;;;;5059784;28;20029;-86
2021/12/04 08:19:27;;;;;;;2.08;1.05;;;;;;;;;;5059202;28;20044;-85
2021/12/04 08:21:52;;;;;;;0.88;0.65;;;;;;;;;;5059754;28;20028;-87
2021/12/04 08:24:18;;;;;;;2.65;1.00;;;;;;;;;;5060824;28;20032;-86
2021/12/04 08:26:44;;;;;;;1.70;0.98;;;;;;;;;;5060102;28;20039;-85
2021/12/04 08:29:09;;;;;;;3.60;1.45;;;;;;;;;;5060244;28;20089;-86
2021/12/04 08:31:36;;;;;;;3.40;1.60;;;;;;;;;;5059931;28;20510;-85
2021/12/04 08:34:02;;;;;;;0.95;0.70;;;;;;;;;;5032066;28;20018;-86
2021/12/04 08:36:27;;;;;;;3.75;1.67;;;;;;;;;;5054490;28;20032;-85
2021/12/04 08:38:52;;;;;;;2.45;1.35;;;;;;;;;;5054858;28;20414;-85
2021/12/04 08:41:18;;;;;;;2.95;1.40;;;;;;;;;;5043756;28;20032;-85
2021/12/04 08:43:43;;;;;;;1.50;0.98;;;;;;;;;;5058342;28;20032;-85
2021/12/04 08:46:08;;;;;;;2.60;0.80;;;;;;;;;;5053110;28;20037;-86
2021/12/04 08:48:34;;;;;;;6.05;2.38;;;;;;;;;;5056660;28;20039;-86
2021/12/04 08:50:59;;;;;;;2.08;0.90;;;;;;;;;;5060281;28;20474;-85
2021/12/04 08:53:25;;;;;;;2.67;1.00;;;;;;;;;;5053379;28;20033;-86
2021/12/04 08:55:50;;;;;;;2.17;1.20;;;;;;;;;;5060242;28;20028;-87
2021/12/04 08:58:15;;;;;;;1.58;0.95;;;;;;;;;;5048295;28;20078;-86
2021/12/04 09:00:41;;;;;;;2.38;0.82;;;;;;;;;;5041758;28;20030;-88
2021/12/04 09:03:06;;;;;;;6.40;2.40;;;;;;;;;;5023090;28;20497;-88
2021/12/04 09:05:32;;;;;;;4.80;2.40;;;;;;;;;;5060104;28;20086;-87
2021/12/04 09:07:57;;;;;;;3.53;2.40;;;;;;;;;;5053246;28;20099;-86
2021/12/04 09:10:22;;;;;;;3.60;2.05;;;;;;;;;;5060961;28;20033;-87
2021/12/04 09:12:47;;;;;;;1.83;1.30;;;;;;;;;;5055367;28;20021;-88
2021/12/04 09:15:13;;;;;;;2.47;1.63;;;;;;;;;;5059223;28;20037;-87
2021/12/04 09:17:38;;;;;;;2.20;1.52;;;;;;;;;;5060539;28;20033;-87
2021/12/04 09:20:03;;;;;;;1.90;1.40;;;;;;;;;;5059907;28;20048;-86
2021/12/04 09:22:32;;;;;;;2.90;1.88;;;;;;;;;;5061377;28;20025;-87
2021/12/04 09:24:59;;;;;;;3.42;2.17;;;;;;;;;;5058974;28;20033;-87
2021/12/04 10:15:22;;;;;;;2.90;1.40;;;;;;;;;;5039948;28;20076;-86
2021/12/04 10:18:16;;;;;;;2.33;1.10;;;;;;;;;;5060970;28;20071;-86
2021/12/04 10:33:35;;;;;;;2.28;0.80;;;;;;;;;;5058844;28;20040;-86
2021/12/04 10:36:03;;;;;;;2.17;1.00;;;;;;;;;;5058824;28;20439;-86
2021/12/04 10:38:32;;;;;;;3.35;1.10;;;;;;;;;;5058951;28;20024;-86
2021/12/04 10:40:57;;;;;;;6.13;1.20;;;;;;;;;;5060562;28;20170;-86
2021/12/04 10:43:23;;;;;;;3.30;1.15;;;;;;;;;;5058028;28;20052;-86
2021/12/04 10:45:50;;;;;;;1.52;0.85;;;;;;;;;;5059755;28;20060;-86
2021/12/04 10:48:19;;;;;;;5.07;1.48;;;;;;;;;;5042101;28;20029;-86
2021/12/04 10:51:02;;;;;;;2.95;1.30;;;;;;;;;;5059419;28;20025;-87
2021/12/04 10:53:28;;;;;;;2.38;1.40;;;;;;;;;;5042887;28;20065;-87
2021/12/04 11:03:39;;;;;;;2.88;1.50;;;;;;;;;;5058320;28;20040;-86
2021/12/04 11:20:11;;;;;;;3.03;1.10;;;;;;;;;;5060641;28;20041;-87
2021/12/04 11:36:15;;;;;;;3.72;1.42;;;;;;;;;;5057650;28;20035;-85
2021/12/04 11:41:33;;;;;;;1.58;1.00;;;;;;;;;;5056162;28;20036;-86
2021/12/04 11:44:44;;;;;;;4.85;1.60;;;;;;;;;;5056110;28;20048;-85
2021/12/04 11:46:53;;;;;;;3.20;1.70;;;;;;;;;;5054626;28;20052;-86
2021/12/04 11:49:19;;;;;;;3.50;1.83;;;;;;;;;;5057067;28;20073;-86
2021/12/04 11:51:44;;;;;;;5.68;1.60;;;;;;;;;;5057560;28;20028;-86
2021/12/04 11:54:09;;;;;;;3.00;1.33;;;;;;;;;;5057198;28;20044;-85
2021/12/04 11:56:35;;;;;;;4.18;2.05;;;;;;;;;;5055344;28;20105;-87
2021/12/04 11:59:00;;;;;;;4.38;2.78;;;;;;;;;;5056315;28;20112;-85
2021/12/04 12:01:30;;;;;;;2.08;1.20;;;;;;;;;;5056177;28;20519;-86
2021/12/04 12:03:55;;;;;;;3.30;1.70;;;;;;;;;;5055518;28;20029;-86
2021/12/04 12:06:20;;;;;;;3.95;1.60;;;;;;;;;;5054518;28;20112;-86
2021/12/04 12:08:46;;;;;;;3.35;1.60;;;;;;;;;;5055966;28;20033;-86
2021/12/04 12:11:11;;;;;;;2.55;1.38;;;;;;;;;;5056820;28;20037;-85
2021/12/04 12:13:37;;;;;;;1.65;1.00;;;;;;;;;;5038352;28;20041;-87
2021/12/04 12:16:03;;;;;;;2.95;1.25;;;;;;;;;;5057170;28;20048;-86
2021/12/04 12:18:28;;;;;;;3.85;1.58;;;;;;;;;;5057035;28;20032;-85
2021/12/04 12:21:00;;;;;;;2.53;1.35;;;;;;;;;;5052857;28;20105;-85
2021/12/04 12:23:30;;;;;;;1.95;1.08;;;;;;;;;;5056192;28;20043;-86
2021/12/04 12:34:07;;;;;;;2.03;1.10;;;;;;;;;;5055823;28;20079;-86
2021/12/04 12:36:32;;;;;;;1.63;0.82;;;;;;;;;;5043627;28;20080;-85
2021/12/04 12:38:57;;;;;;;1.58;0.85;;;;;;;;;;5038215;28;20037;-87
2021/12/04 12:41:23;;;;;;;2.15;1.20;;;;;;;;;;5041080;28;20488;-86
2021/12/04 12:43:48;;;;;;;3.10;1.27;;;;;;;;;;5040456;28;20039;-87
2021/12/04 12:46:14;;;;;;;2.05;1.27;;;;;;;;;;5039974;28;20569;-87
2021/12/04 12:48:39;;;;;;;1.65;1.00;;;;;;;;;;5041394;28;20045;-87
2021/12/04 12:51:04;;;;;;;4.32;1.30;;;;;;;;;;5040420;28;20032;-86
2021/12/04 12:53:30;;;;;;;3.25;1.30;;;;;;;;;;5049661;28;20126;-85
2021/12/04 12:55:56;;;;;;;1.95;1.05;;;;;;;;;;5062414;28;20039;-85
2021/12/04 12:58:22;;;;;;;2.42;1.05;;;;;;;;;;5062945;28;20037;-85
2021/12/04 13:11:45;;;;;;;5.60;2.22;;;;;;;;;;5050206;28;20477;-87
2021/12/04 13:14:11;;;;;;;3.13;1.35;;;;;;;;;;5031385;28;20037;-87
2021/12/04 13:16:36;;;;;;;10.77;3.60;;;;;;;;;;5062635;28;20131;-87
2021/12/04 13:19:04;;;;;;;2.47;1.10;;;;;;;;;;5062437;28;20037;-88
2021/12/04 13:21:29;;;;;;;4.35;2.10;;;;;;;;;;5064231;28;20052;-87
2021/12/04 13:23:55;;;;;;;8.18;2.90;;;;;;;;;;5064128;28;20029;-88
2021/12/04 13:26:20;;;;;;;2.25;1.45;;;;;;;;;;5063778;28;20097;-87
2021/12/04 13:28:45;;;;;;;2.65;1.20;;;;;;;;;;5063356;28;20048;-87
2021/12/04 13:31:10;;;;;;;9.52;3.55;;;;;;;;;;5064964;28;20035;-87
2021/12/04 13:33:37;;;;;;;3.90;1.70;;;;;;;;;;5062791;28;20090;-87
2021/12/04 13:36:02;;;;;;;6.00;2.58;;;;;;;;;;5046462;28;20032;-87
2021/12/04 13:38:27;;;;;;;8.98;4.05;;;;;;;;;;5064131;28;20124;-86
2021/12/04 13:40:54;;;;;;;8.98;4.03;;;;;;;;;;5063876;28;20061;-87
2021/12/04 13:43:19;;;;;;;7.13;3.00;;;;;;;;;;5063302;28;20032;-87
2021/12/04 13:45:45;;;;;;;9.60;4.22;;;;;;;;;;5062411;28;20080;-86
2021/12/04 13:48:10;;;;;;;5.20;2.70;;;;;;;;;;5062410;28;20041;-86
2021/12/04 13:53:01;;;;;;;7.75;3.60;;;;;;;;;;5061782;28;20056;-87
2021/12/04 13:55:26;;;;;;;7.20;3.28;;;;;;;;;;5063150;28;20029;-87
2021/12/04 13:57:52;;;;;;;7.75;4.07;;;;;;;;;;5063576;28;20043;-87
2021/12/04 14:00:17;;;;;;;5.32;2.70;;;;;;;;;;5060025;28;20033;-87
2021/12/04 14:02:42;;;;;;;5.00;2.08;;;;;;;;;;5058671;28;20384;-87
2021/12/04 14:05:08;;;;;;;5.05;2.58;;;;;;;;;;5042224;28;20079;-87
2021/12/04 14:07:33;;;;;;;6.25;3.70;;;;;;;;;;5060567;28;20033;-87
2021/12/04 14:09:59;;;;;;;4.63;2.60;;;;;;;;;;5059856;28;20033;-87
2021/12/04 14:12:25;;;;;;;4.55;3.00;;;;;;;;;;5061940;28;20404;-87
2021/12/04 14:14:51;;;;;;;3.53;2.30;;;;;;;;;;5063526;28;20044;-87
2021/12/04 14:17:16;;;;;;;3.95;2.25;;;;;;;;;;5058927;28;20037;-87
2021/12/04 14:19:41;;;;;;;2.90;1.92;;;;;;;;;;5057520;28;20036;-87
2021/12/04 14:22:08;;;;;;;6.20;2.50;;;;;;;;;;5059220;28;20209;-87
2021/12/04 14:24:33;;;;;;;5.88;2.50;;;;;;;;;;5059016;28;20112;-88
2021/12/04 14:26:58;;;;;;;4.40;1.90;;;;;;;;;;5041560;28;20060;-87
2021/12/04 14:29:27;;;;;;;10.27;2.30;;;;;;;;;;5059050;28;20127;-87
2021/12/04 14:31:52;;;;;;;5.00;2.25;;;;;;;;;;5058940;28;20435;-88
2021/12/04 14:34:17;;;;;;;4.43;1.67;;;;;;;;;;5058747;28;20098;-88
2021/12/04 14:36:43;;;;;;;4.80;2.10;;;;;;;;;;5060966;28;20063;-88
2021/12/04 14:39:08;;;;;;;3.50;1.75;;;;;;;;;;5060109;28;20126;-88
2021/12/04 14:41:33;;;;;;;4.03;1.80;;;;;;;;;;5058441;28;20481;-88
2021/12/04 14:43:59;;;;;;;5.18;2.03;;;;;;;;;;5060109;28;20044;-88
2021/12/04 14:46:26;;;;;;;2.88;1.50;;;;;;;;;;5059822;28;20028;-88
2021/12/04 14:48:52;;;;;;;3.17;1.77;;;;;;;;;;5059086;28;20044;-88
2021/12/04 14:51:17;;;;;;;3.58;1.60;;;;;;;;;;5052840;28;20013;-88
2021/12/04 14:53:43;;;;;;;1.58;1.13;;;;;;;;;;5059706;28;20120;-88
2021/12/04 14:56:08;;;;;;;2.90;1.17;;;;;;;;;;5059200;28;20025;-88
2021/12/04 14:58:33;;;;;;;2.65;1.45;;;;;;;;;;5058641;28;20480;-88
2021/12/04 15:00:59;;;;;;;4.45;2.20;;;;;;;;;;5059330;28;20447;-87
2021/12/04 15:03:25;;;;;;;2.90;1.52;;;;;;;;;;5057427;28;20469;-88
2021/12/04 15:05:50;;;;;;;2.55;1.33;;;;;;;;;;5057615;28;20033;-89
2021/12/04 15:08:16;;;;;;;6.05;2.72;;;;;;;;;;5040121;28;20497;-87
2021/12/04 15:10:41;;;;;;;3.40;1.67;;;;;;;;;;5057437;28;20362;-88
2021/12/04 15:13:07;;;;;;;3.95;1.80;;;;;;;;;;5057450;28;20505;-89
2021/12/04 15:15:34;;;;;;;3.53;1.77;;;;;;;;;;5040572;28;20094;-86
2021/12/04 15:17:59;;;;;;;3.47;1.95;;;;;;;;;;5056855;28;20040;-87
2021/12/04 15:20:31;;;;;;;4.10;2.25;;;;;;;;;;5058822;28;20041;-87
2021/12/04 15:22:58;;;;;;;3.88;1.83;;;;;;;;;;5058690;28;20013;-86
2021/12/04 15:25:26;;;;;;;5.55;2.00;;;;;;;;;;5055149;28;20033;-86
2021/12/04 15:27:51;;;;;;;4.18;2.20;;;;;;;;;;5049624;28;20059;-86
2021/12/04 15:30:18;;;;;;;3.05;1.70;;;;;;;;;;5038305;28;20446;-89
2021/12/04 15:32:43;;;;;;;4.13;1.92;;;;;;;;;;5020383;28;20056;-87
2021/12/04 15:35:09;;;;;;;4.10;2.08;;;;;;;;;;5037298;28;20040;-89
2021/12/04 15:37:37;;;;;;;4.85;2.22;;;;;;;;;;5037641;28;20034;-90
2021/12/04 15:40:05;;;;;;;6.00;2.97;;;;;;;;;;5039432;28;20087;-89
2021/12/04 15:42:30;;;;;;;3.15;1.95;;;;;;;;;;5035550;28;20507;-89
2021/12/04 15:53:20;;;;;;;4.78;2.60;;;;;;;;;;5056137;28;20037;-88
2021/12/04 15:55:28;;;;;;;5.93;2.58;;;;;;;;;;5051928;28;20481;-89
2021/12/04 15:57:54;;;;;;;4.95;2.10;;;;;;;;;;5055732;28;20041;-88
2021/12/04 16:00:19;;;;;;;4.30;2.45;;;;;;;;;;5056663;28;20056;-89
2021/12/04 16:02:49;;;;;;;3.25;1.80;;;;;;;;;;5056177;28;20025;-88
2021/12/04 16:05:18;;;;;;;4.68;2.40;;;;;;;;;;5057110;28;20021;-88
2021/12/04 16:07:44;;;;;;;4.63;2.20;;;;;;;;;;5056142;28;20033;-87
2021/12/04 16:10:11;;;;;;;4.38;2.20;;;;;;;;;;5055974;28;20036;-87
2021/12/04 16:12:38;;;;;;;3.40;1.95;;;;;;;;;;5057576;28;20416;-87
2021/12/04 16:15:03;;;;;;;4.95;2.58;;;;;;;;;;5061238;28;20045;-88
2021/12/04 16:17:29;;;;;;;7.32;3.92;;;;;;;;;;5064000;28;20056;-88
2021/12/04 16:20:06;;;;;;;6.38;3.90;;;;;;;;;;5063886;28;20044;-88
2021/12/04 16:22:36;;;;;;;5.82;3.15;;;;;;;;;;5063322;28;20029;-88
2021/12/04 16:25:03;;;;;;;6.25;3.17;;;;;;;;;;5045734;28;20029;-88
2021/12/04 16:27:32;;;;;;;5.63;2.85;;;;;;;;;;5057995;28;20034;-88
2021/12/04 16:30:10;;;;;;;3.88;2.20;;;;;;;;;;5058358;28;20025;-88
2021/12/04 16:37:56;;;;;;;5.55;2.90;;;;;;;;;;5042399;28;20128;-87
2021/12/04 16:40:23;;;;;;;5.07;2.50;;;;;;;;;;5058614;28;20126;-88
2021/12/04 16:42:50;;;;;;;5.28;2.60;;;;;;;;;;5043349;28;20052;-88
2021/12/04 16:45:15;;;;;;;8.02;2.70;;;;;;;;;;5046108;28;20056;-87
2021/12/04 16:47:44;;;;;;;4.72;2.40;;;;;;;;;;5045529;28;20485;-87
2021/12/04 16:50:13;;;;;;;3.30;2.30;;;;;;;;;;5062141;28;20041;-87
2021/12/04 16:55:39;;;;;;;6.43;3.47;;;;;;;;;;5057778;28;20060;-88
2021/12/04 16:58:12;;;;;;;5.45;2.63;;;;;;;;;;5058034;28;20413;-88
2021/12/04 17:00:37;;;;;;;6.65;3.47;;;;;;;;;;5057805;28;20025;-88
2021/12/04 17:03:03;;;;;;;3.38;1.92;;;;;;;;;;5041030;28;20033;-87
2021/12/04 17:05:33;;;;;;;2.90;1.50;;;;;;;;;;5056563;28;20052;-87
2021/12/04 17:07:58;;;;;;;3.35;1.92;;;;;;;;;;5058422;28;20056;-88
2021/12/04 17:10:24;;;;;;;3.50;1.50;;;;;;;;;;5058404;28;20496;-88
2021/12/04 17:12:49;;;;;;;3.60;2.30;;;;;;;;;;5058305;28;20029;-88
2021/12/04 17:15:14;;;;;;;5.13;2.42;;;;;;;;;;5057785;28;20062;-88
2021/12/04 17:17:43;;;;;;;6.60;2.38;;;;;;;;;;5058001;28;20061;-88
2021/12/04 17:20:09;;;;;;;3.60;2.28;;;;;;;;;;5039999;28;20489;-88
2021/12/04 17:22:34;;;;;;;5.25;3.25;;;;;;;;;;5056273;28;20020;-88
2021/12/04 17:24:59;;;;;;;5.80;3.60;;;;;;;;;;5055651;28;20049;-89
2021/12/04 17:27:25;;;;;;;5.70;3.53;;;;;;;;;;5056595;28;20094;-89
2021/12/04 17:29:53;;;;;;;6.18;3.28;;;;;;;;;;5058119;28;20086;-89
2021/12/04 17:32:19;;;;;;;4.18;2.05;;;;;;;;;;5056718;28;20036;-89
2021/12/04 17:34:45;;;;;;;4.20;1.90;;;;;;;;;;5056212;28;20037;-88
2021/12/04 17:37:10;;;;;;;4.18;2.17;;;;;;;;;;5038821;28;20047;-89
2021/12/04 17:39:35;;;;;;;5.70;1.90;;;;;;;;;;5040674;28;20070;-89
2021/12/04 17:42:01;;;;;;;4.72;2.63;;;;;;;;;;5060996;28;20104;-88
2021/12/04 17:44:26;;;;;;;4.20;2.13;;;;;;;;;;5059412;28;20097;-89
2021/12/04 17:46:51;;;;;;;5.65;2.05;;;;;;;;;;5058833;28;20014;-89
2021/12/04 17:49:17;;;;;;;5.22;1.83;;;;;;;;;;5042775;28;20082;-89
2021/12/04 17:51:42;;;;;;;5.40;2.33;;;;;;;;;;5058631;28;20480;-89
2021/12/04 17:54:09;;;;;;;3.88;2.20;;;;;;;;;;5059890;28;20037;-88
2021/12/04 17:56:34;;;;;;;3.72;2.50;;;;;;;;;;5059119;28;20443;-89
2021/12/04 17:59:00;;;;;;;3.75;2.00;;;;;;;;;;5059850;28;20493;-88